Time;durP1;ratioP1;P1;durP2;ratioP2;P2;SDS_P1;SDS_P2;PMS_P1;PMS_P2;Temp;Humidity;BMP_temperature;BMP_pressure;BME280_temperature;BME280_humidity;BME280_pressure;Samples;Min_cycle;Max_cycle;Signal;HPM_P1;HPM_P2
2023/05/21 00:00:29;;;;;;;2.30;2.10;;;21.60;56.90;;;;;;5064156;28;20213;-45
2023/05/21 00:03:00;;;;;;;2.13;1.70;;;21.60;57.00;;;;;;5067043;28;20205;-45
2023/05/21 00:05:31;;;;;;;3.13;2.10;;;21.50;56.90;;;;;;5070649;28;20213;-45
2023/05/21 00:08:01;;;;;;;2.57;2.00;;;21.50;56.90;;;;;;5068156;28;20209;-45
2023/05/21 00:10:33;;;;;;;2.83;2.13;;;21.50;57.00;;;;;;5062284;28;20648;-45
2023/05/21 00:13:03;;;;;;;2.97;2.33;;;21.50;56.90;;;;;;5053319;28;20193;-45
2023/05/21 00:15:33;;;;;;;2.57;2.23;;;21.50;56.80;;;;;;5053811;28;20209;-44
2023/05/21 00:18:05;;;;;;;4.47;2.20;;;21.50;56.80;;;;;;5069269;28;20200;-45
2023/05/21 00:20:34;;;;;;;3.83;2.13;;;21.50;56.90;;;;;;5044103;28;20190;-45
2023/05/21 00:23:06;;;;;;;2.53;2.10;;;21.40;56.90;;;;;;5068336;28;20546;-45
2023/05/21 00:25:38;;;;;;;2.70;1.87;;;21.40;56.90;;;;;;5072385;28;20210;-45
2023/05/21 00:28:10;;;;;;;2.60;2.30;;;21.50;57.00;;;;;;5064296;28;20221;-45
2023/05/21 00:30:41;;;;;;;2.80;2.33;;;21.50;57.00;;;;;;5071054;28;20238;-44
2023/05/21 00:33:12;;;;;;;2.23;1.97;;;21.50;57.00;;;;;;5070344;28;20610;-44
2023/05/21 00:35:43;;;;;;;4.07;2.30;;;21.40;57.00;;;;;;5070677;28;20225;-44
2023/05/21 00:38:17;;;;;;;2.37;2.17;;;21.40;57.00;;;;;;5065621;28;20216;-45
2023/05/21 00:40:45;;;;;;;2.67;2.47;;;21.40;57.00;;;;;;5069829;28;20209;-44
2023/05/21 00:43:13;;;;;;;2.13;1.93;;;21.40;57.00;;;;;;5068777;28;20599;-44
2023/05/21 00:45:47;;;;;;;3.37;2.07;;;21.40;56.90;;;;;;5069883;28;20227;-44
2023/05/21 00:48:23;;;;;;;2.23;2.03;;;21.40;56.90;;;;;;5055540;28;20221;-44
2023/05/21 00:50:55;;;;;;;2.03;1.83;;;21.40;57.00;;;;;;5048628;28;20750;-44
2023/05/21 00:53:26;;;;;;;2.13;1.93;;;21.40;57.00;;;;;;5054564;28;20550;-44
2023/05/21 00:55:56;;;;;;;2.83;1.83;;;21.30;56.90;;;;;;5068657;28;20233;-44
2023/05/21 00:58:26;;;;;;;2.70;2.07;;;21.40;57.00;;;;;;5067432;28;20197;-44
2023/05/21 01:01:02;;;;;;;2.43;2.23;;;21.40;57.00;;;;;;5055833;28;20205;-44
2023/05/21 01:03:37;;;;;;;3.47;1.90;;;21.30;56.90;;;;;;5066939;28;20239;-44
2023/05/21 01:06:10;;;;;;;2.37;2.17;;;21.30;56.90;;;;;;5065827;28;20201;-44
2023/05/21 01:08:41;;;;;;;2.40;2.20;;;21.30;57.00;;;;;;5052119;28;20225;-45
2023/05/21 01:11:40;;;;;;;2.50;2.23;;;21.30;57.00;;;;;;5068544;28;20197;-44
2023/05/21 01:14:13;;;;;;;2.73;2.30;;;21.30;56.90;;;;;;5063213;28;20263;-44
2023/05/21 01:16:47;;;;;;;1.87;1.77;;;21.30;56.90;;;;;;5042551;28;20194;-45
2023/05/21 01:19:20;;;;;;;2.17;2.00;;;21.20;57.00;;;;;;5036148;28;20209;-44
2023/05/21 01:21:56;;;;;;;4.00;2.30;;;21.30;57.00;;;;;;5059205;28;20542;-45
2023/05/21 01:24:24;;;;;;;2.30;1.90;;;21.30;56.90;;;;;;5048797;28;20279;-44
2023/05/21 01:26:57;;;;;;;2.30;2.10;;;21.20;57.00;;;;;;5063074;28;20229;-44
2023/05/21 01:29:35;;;;;;;2.90;2.20;;;21.20;57.00;;;;;;5053382;28;20296;-44
2023/05/21 01:32:32;;;;;;;1.90;1.80;;;21.20;57.00;;;;;;5053191;28;20263;-44
2023/05/21 01:35:16;;;;;;;3.67;2.27;;;21.20;57.00;;;;;;5069911;28;20178;-44
2023/05/21 01:38:13;;;;;;;2.27;1.97;;;21.20;57.00;;;;;;5041091;28;20197;-44
2023/05/21 01:40:57;;;;;;;3.40;1.90;;;21.20;57.00;;;;;;5069485;28;20510;-44
2023/05/21 01:43:28;;;;;;;2.17;1.97;;;21.20;57.10;;;;;;5063938;28;20217;-44
2023/05/21 01:45:58;;;;;;;2.50;2.27;;;21.10;57.10;;;;;;5052507;28;20202;-44
2023/05/21 01:48:28;;;;;;;2.93;2.30;;;21.10;57.10;;;;;;5070653;28;20223;-44
2023/05/21 01:50:59;;;;;;;2.40;2.20;;;21.10;57.10;;;;;;5068861;28;20291;-44
2023/05/21 01:53:30;;;;;;;3.80;2.60;;;21.10;57.10;;;;;;5068961;28;20610;-44
2023/05/21 01:56:01;;;;;;;2.10;1.83;;;21.10;57.20;;;;;;5052499;28;20255;-44
2023/05/21 01:58:30;;;;;;;2.97;2.23;;;21.10;57.10;;;;;;5072771;28;20209;-44
2023/05/21 02:00:58;;;;;;;2.47;2.10;;;21.10;57.10;;;;;;5056009;28;20189;-44
2023/05/21 02:03:30;;;;;;;3.63;2.30;;;21.10;57.10;;;;;;5053872;28;20227;-44
2023/05/21 02:06:01;;;;;;;2.27;2.07;;;21.10;57.00;;;;;;5067630;28;20305;-44
2023/05/21 02:08:32;;;;;;;2.27;2.07;;;21.10;57.00;;;;;;5066730;28;20229;-44
2023/05/21 02:11:03;;;;;;;2.30;2.10;;;21.10;57.00;;;;;;5067727;28;20181;-44
2023/05/21 02:13:31;;;;;;;2.40;2.20;;;21.10;57.00;;;;;;5054289;28;20639;-44
2023/05/21 02:16:03;;;;;;;3.20;2.00;;;21.10;57.10;;;;;;5066154;28;20194;-44
2023/05/21 02:18:35;;;;;;;2.40;2.20;;;21.10;57.10;;;;;;5071993;28;20764;-44
2023/05/21 02:21:04;;;;;;;2.20;2.00;;;21.10;57.10;;;;;;5071987;28;20223;-44
2023/05/21 02:23:36;;;;;;;3.77;2.30;;;21.10;57.10;;;;;;5071851;28;20193;-44
2023/05/21 02:26:08;;;;;;;3.50;2.20;;;21.10;57.10;;;;;;5043888;28;20189;-45
2023/05/21 02:28:39;;;;;;;2.50;2.30;;;21.00;57.00;;;;;;5069709;28;20271;-44
2023/05/21 02:31:08;;;;;;;2.13;1.93;;;21.00;57.10;;;;;;5053265;28;20875;-44
2023/05/21 02:33:40;;;;;;;3.00;2.40;;;21.00;57.10;;;;;;5070552;28;20197;-44
2023/05/21 02:36:14;;;;;;;2.60;2.40;;;21.00;57.10;;;;;;5050863;28;20193;-44
2023/05/21 02:38:45;;;;;;;2.80;2.30;;;21.00;57.10;;;;;;5067361;28;20201;-44
2023/05/21 02:41:22;;;;;;;2.57;2.30;;;20.90;57.10;;;;;;5069949;28;20681;-44
2023/05/21 02:43:51;;;;;;;2.33;2.10;;;21.00;57.10;;;;;;5070463;28;20198;-44
2023/05/21 02:46:21;;;;;;;2.77;2.30;;;21.00;57.10;;;;;;5068810;28;20197;-44
2023/05/21 02:48:53;;;;;;;2.63;2.43;;;21.00;57.10;;;;;;5073892;28;20280;-44
2023/05/21 02:51:25;;;;;;;2.37;2.17;;;20.90;57.00;;;;;;5068917;28;20194;-44
2023/05/21 02:53:56;;;;;;;2.17;1.87;;;21.00;57.10;;;;;;5073871;28;20197;-45
2023/05/21 02:56:26;;;;;;;2.40;1.87;;;21.00;57.20;;;;;;5070737;28;20206;-44
2023/05/21 02:58:58;;;;;;;2.50;2.30;;;21.00;57.20;;;;;;5053883;28;20221;-44
2023/05/21 03:01:27;;;;;;;3.33;2.00;;;21.00;57.20;;;;;;5071025;28;20201;-44
2023/05/21 03:03:57;;;;;;;2.23;2.03;;;21.00;57.20;;;;;;5068011;28;20648;-44
2023/05/21 03:06:28;;;;;;;2.30;2.10;;;20.90;57.20;;;;;;5045419;28;20194;-44
2023/05/21 03:08:57;;;;;;;2.03;1.93;;;21.00;57.20;;;;;;5071022;28;20606;-44
2023/05/21 03:11:43;;;;;;;3.67;2.40;;;20.90;57.20;;;;;;5070101;28;20229;-44
2023/05/21 03:14:15;;;;;;;2.10;2.00;;;20.90;57.20;;;;;;5047468;28;20198;-44
2023/05/21 03:16:45;;;;;;;2.00;1.90;;;20.90;57.20;;;;;;5053847;28;20240;-44
2023/05/21 03:19:15;;;;;;;1.90;1.80;;;20.90;57.20;;;;;;5055494;28;20220;-44
2023/05/21 03:21:44;;;;;;;2.43;2.07;;;20.90;57.30;;;;;;5056484;28;20197;-44
2023/05/21 03:24:15;;;;;;;2.47;2.10;;;20.90;57.20;;;;;;5071261;28;20206;-44
2023/05/21 03:26:48;;;;;;;2.50;2.30;;;20.90;57.20;;;;;;5073388;28;20213;-44
2023/05/21 03:29:20;;;;;;;3.10;2.67;;;20.90;57.20;;;;;;5061581;28;20787;-44
2023/05/21 03:31:52;;;;;;;3.23;2.63;;;20.90;57.20;;;;;;5059174;28;20299;-44
2023/05/21 03:34:20;;;;;;;2.27;2.07;;;20.80;57.20;;;;;;5033796;28;20576;-44
2023/05/21 03:36:52;;;;;;;2.23;2.03;;;20.90;57.20;;;;;;5036579;28;20197;-44
2023/05/21 03:39:20;;;;;;;2.50;2.17;;;20.90;57.30;;;;;;5055586;28;20233;-44
2023/05/21 03:41:53;;;;;;;3.40;2.43;;;20.90;57.40;;;;;;5058764;28;20250;-44
2023/05/21 03:44:23;;;;;;;2.57;2.20;;;20.80;57.30;;;;;;5048040;28;20500;-44
2023/05/21 03:46:55;;;;;;;2.77;2.53;;;20.80;57.30;;;;;;5038531;28;20229;-44
2023/05/21 03:49:25;;;;;;;2.63;2.43;;;20.80;57.30;;;;;;5047189;28;20537;-44
2023/05/21 03:51:55;;;;;;;2.53;2.33;;;20.80;57.30;;;;;;5047004;28;20249;-44
2023/05/21 03:54:24;;;;;;;2.53;2.10;;;20.80;57.30;;;;;;5039709;28;20203;-44
2023/05/21 03:56:54;;;;;;;3.37;2.47;;;20.80;57.30;;;;;;5050344;28;20198;-43
2023/05/21 03:59:25;;;;;;;2.40;2.20;;;20.80;57.30;;;;;;5050292;28;20280;-44
2023/05/21 04:01:54;;;;;;;2.27;2.07;;;20.80;57.30;;;;;;5053801;28;20557;-43
2023/05/21 04:04:25;;;;;;;2.47;2.27;;;20.80;57.40;;;;;;5037375;28;20225;-44
2023/05/21 04:06:56;;;;;;;4.07;2.40;;;20.80;57.30;;;;;;5057959;28;20205;-43
2023/05/21 04:09:27;;;;;;;4.20;2.20;;;20.80;57.30;;;;;;5042609;28;20262;-43
2023/05/21 04:11:58;;;;;;;2.20;2.00;;;20.80;57.40;;;;;;5033077;28;20262;-44
2023/05/21 04:14:27;;;;;;;3.60;2.60;;;20.80;57.40;;;;;;5045494;28;20202;-43
2023/05/21 04:16:57;;;;;;;3.33;1.90;;;20.80;57.40;;;;;;5048032;28;20276;-43
2023/05/21 04:19:25;;;;;;;2.30;2.10;;;20.70;57.30;;;;;;5049464;28;20217;-43
2023/05/21 04:22:01;;;;;;;2.60;2.40;;;20.80;57.30;;;;;;5050700;28;20198;-43
2023/05/21 04:24:32;;;;;;;3.30;2.23;;;20.80;57.30;;;;;;5049920;28;20605;-43
2023/05/21 04:27:08;;;;;;;2.70;2.27;;;20.70;57.30;;;;;;5051859;28;20214;-43
2023/05/21 04:29:43;;;;;;;3.90;2.47;;;20.70;57.30;;;;;;5060324;28;20218;-43
2023/05/21 04:32:37;;;;;;;2.73;2.27;;;20.80;57.30;;;;;;5064338;28;20276;-43
2023/05/21 04:35:09;;;;;;;2.30;2.10;;;20.70;57.20;;;;;;5072446;28;20193;-43
2023/05/21 04:37:44;;;;;;;2.53;2.23;;;20.70;57.30;;;;;;5065436;28;20610;-44
2023/05/21 04:40:17;;;;;;;3.07;2.33;;;20.80;57.30;;;;;;5058316;28;20235;-43
2023/05/21 04:42:47;;;;;;;2.83;2.40;;;20.70;57.30;;;;;;5056433;28;20639;-43
2023/05/21 04:45:20;;;;;;;4.70;2.37;;;20.70;57.30;;;;;;5069475;28;20206;-44
2023/05/21 04:47:51;;;;;;;3.50;2.53;;;20.70;57.30;;;;;;5069759;28;20202;-44
2023/05/21 04:50:23;;;;;;;2.30;2.10;;;20.70;57.30;;;;;;5065402;28;20224;-43
2023/05/21 04:52:53;;;;;;;2.57;2.37;;;20.80;57.30;;;;;;5070048;28;20197;-44
2023/05/21 04:55:24;;;;;;;2.37;2.17;;;20.70;57.30;;;;;;5069101;28;20193;-44
2023/05/21 04:57:54;;;;;;;2.53;2.20;;;20.80;57.40;;;;;;5068544;28;20191;-44
2023/05/21 05:00:24;;;;;;;2.37;2.17;;;20.80;57.30;;;;;;5068665;28;20209;-44
2023/05/21 05:02:56;;;;;;;3.77;2.60;;;20.70;57.20;;;;;;5061486;28;20529;-43
2023/05/21 05:05:28;;;;;;;2.63;2.43;;;20.70;57.20;;;;;;5064134;28;20193;-44
2023/05/21 05:07:57;;;;;;;2.90;2.30;;;20.70;57.20;;;;;;5058974;28;20190;-43
2023/05/21 05:10:29;;;;;;;2.60;2.40;;;20.70;57.10;;;;;;5074970;28;20213;-44
2023/05/21 05:13:05;;;;;;;3.13;2.50;;;20.70;57.20;;;;;;5077805;28;20186;-43
2023/05/21 05:15:38;;;;;;;2.63;2.37;;;20.70;57.10;;;;;;5072063;28;20221;-43
2023/05/21 05:18:11;;;;;;;3.00;2.70;;;20.70;57.10;;;;;;5072690;28;20261;-43
2023/05/21 05:20:43;;;;;;;2.37;2.17;;;20.70;57.10;;;;;;5078265;28;20205;-43
2023/05/21 05:23:14;;;;;;;2.60;2.40;;;20.70;57.10;;;;;;5071046;28;20212;-43
2023/05/21 05:25:43;;;;;;;3.03;2.73;;;20.70;57.10;;;;;;5070919;28;20205;-43
2023/05/21 05:28:12;;;;;;;2.27;2.07;;;20.70;57.10;;;;;;5062919;28;20531;-44
2023/05/21 05:30:43;;;;;;;2.43;2.23;;;20.70;57.10;;;;;;5070059;28;20229;-44
2023/05/21 05:33:12;;;;;;;2.80;2.53;;;20.70;57.00;;;;;;5072613;28;20196;-44
2023/05/21 05:35:44;;;;;;;2.97;2.50;;;20.70;57.10;;;;;;5072524;28;20510;-44
2023/05/21 05:38:19;;;;;;;2.20;2.00;;;20.70;57.10;;;;;;5067162;28;20812;-44
2023/05/21 05:40:53;;;;;;;2.30;2.10;;;20.70;57.10;;;;;;5073307;28;20615;-44
2023/05/21 05:43:25;;;;;;;3.60;2.40;;;20.70;57.10;;;;;;5072637;28;20204;-44
2023/05/21 05:45:55;;;;;;;3.33;2.83;;;20.70;57.10;;;;;;5038478;28;20222;-43
2023/05/21 05:48:26;;;;;;;2.37;2.17;;;20.70;57.20;;;;;;5067801;28;20282;-43
2023/05/21 05:50:56;;;;;;;2.87;2.30;;;20.70;57.20;;;;;;5063779;28;20280;-44
2023/05/21 05:53:25;;;;;;;3.77;2.30;;;20.70;57.20;;;;;;5035694;28;20202;-44
2023/05/21 05:55:55;;;;;;;2.80;2.50;;;20.70;57.30;;;;;;5073714;28;20693;-44
2023/05/21 05:58:28;;;;;;;3.20;2.60;;;20.70;57.30;;;;;;5069375;28;20263;-44
2023/05/21 06:00:56;;;;;;;2.63;2.43;;;20.80;57.30;;;;;;5072680;28;20536;-44
2023/05/21 06:03:28;;;;;;;3.20;2.20;;;20.70;57.30;;;;;;5071369;28;20741;-44
2023/05/21 06:05:59;;;;;;;2.43;2.23;;;20.70;57.30;;;;;;5067106;28;20529;-43
2023/05/21 06:08:33;;;;;;;2.40;2.20;;;20.70;57.30;;;;;;5068523;28;20215;-43
2023/05/21 06:11:05;;;;;;;4.47;2.60;;;20.70;57.30;;;;;;5071383;28;20228;-44
2023/05/21 06:13:36;;;;;;;3.00;2.70;;;20.70;57.30;;;;;;5063203;28;20615;-44
2023/05/21 06:16:03;;;;;;;4.73;2.30;;;20.70;57.30;;;;;;5051871;28;20218;-44
2023/05/21 06:18:32;;;;;;;4.33;2.50;;;20.70;57.30;;;;;;5071232;28;20675;-44
2023/05/21 06:21:02;;;;;;;2.63;2.23;;;20.70;57.30;;;;;;5061607;28;20206;-43
2023/05/21 06:23:46;;;;;;;3.40;2.60;;;20.70;57.40;;;;;;5071582;28;20294;-43
2023/05/21 06:26:18;;;;;;;3.23;2.87;;;20.70;57.40;;;;;;5064616;28;20227;-44
2023/05/21 06:28:52;;;;;;;4.47;2.73;;;20.70;58.00;;;;;;5063722;28;20284;-44
2023/05/21 06:31:21;;;;;;;4.73;2.53;;;20.70;57.50;;;;;;5072011;28;20241;-44
2023/05/21 06:33:51;;;;;;;3.70;2.30;;;20.70;57.50;;;;;;5057832;28;20212;-44
2023/05/21 06:36:28;;;;;;;3.13;2.67;;;20.70;57.40;;;;;;5069107;28;20469;-44
2023/05/21 06:38:57;;;;;;;3.40;2.93;;;20.80;57.50;;;;;;5042135;28;20651;-44
2023/05/21 06:41:28;;;;;;;3.07;2.43;;;20.70;57.40;;;;;;5052689;28;20631;-44
2023/05/21 06:43:58;;;;;;;3.20;2.53;;;20.70;57.40;;;;;;5065962;28;20198;-44
2023/05/21 06:46:31;;;;;;;2.90;2.60;;;20.70;57.40;;;;;;5069178;28;20765;-44
2023/05/21 06:49:05;;;;;;;2.90;2.60;;;20.70;57.40;;;;;;5068876;28;20205;-44
2023/05/21 06:51:38;;;;;;;3.00;2.70;;;20.70;57.40;;;;;;5065358;28;20209;-43
2023/05/21 06:54:10;;;;;;;3.00;2.73;;;20.70;57.40;;;;;;5066458;28;20213;-43
2023/05/21 06:56:41;;;;;;;5.10;3.17;;;20.70;57.50;;;;;;5058989;28;20205;-44
2023/05/21 06:59:26;;;;;;;4.10;2.70;;;20.80;57.50;;;;;;5068427;28;20549;-44
2023/05/21 07:01:58;;;;;;;6.70;3.93;;;20.70;57.50;;;;;;5046467;28;20600;-44
2023/05/21 07:04:25;;;;;;;11.20;5.90;;;20.80;57.60;;;;;;5067154;28;20229;-43
2023/05/21 07:06:59;;;;;;;12.07;5.67;;;20.80;57.80;;;;;;5069872;28;20640;-44
2023/05/21 07:09:30;;;;;;;9.50;5.40;;;20.80;57.80;;;;;;5067850;28;20499;-44
2023/05/21 07:12:00;;;;;;;11.47;5.10;;;20.80;57.80;;;;;;5068593;28;20222;-44
2023/05/21 07:14:30;;;;;;;10.43;4.80;;;20.80;57.80;;;;;;5064179;28;20224;-44
2023/05/21 07:17:01;;;;;;;11.10;4.70;;;20.80;57.70;;;;;;5070477;28;20194;-44
2023/05/21 07:19:33;;;;;;;8.97;4.53;;;20.80;57.70;;;;;;5070023;28;20204;-44
2023/05/21 07:22:02;;;;;;;8.60;4.20;;;20.80;57.70;;;;;;5068576;28;20204;-43
2023/05/21 07:24:33;;;;;;;6.50;4.27;;;20.80;57.60;;;;;;5069431;28;20210;-44
2023/05/21 07:27:05;;;;;;;7.70;4.30;;;20.80;57.60;;;;;;5059958;28;20268;-44
2023/05/21 07:29:52;;;;;;;4.53;3.63;;;20.80;57.60;;;;;;4914994;28;4239097;-44
2023/05/21 07:32:25;;;;;;;6.63;4.17;;;20.80;57.60;;;;;;5069009;28;20255;-43
2023/05/21 07:35:00;;;;;;;6.57;4.37;;;20.80;57.50;;;;;;5067063;28;20197;-43
2023/05/21 07:37:34;;;;;;;6.40;3.50;;;20.80;57.50;;;;;;5070558;28;20599;-44
2023/05/21 07:40:08;;;;;;;8.60;4.30;;;20.80;57.60;;;;;;5047726;28;20289;-44
2023/05/21 07:42:38;;;;;;;7.13;3.63;;;20.80;57.50;;;;;;5047093;28;20214;-44
2023/05/21 07:45:10;;;;;;;5.47;3.83;;;20.90;57.50;;;;;;5069808;28;20194;-43
2023/05/21 07:47:43;;;;;;;6.40;4.20;;;20.90;57.50;;;;;;5071264;28;20193;-43
2023/05/21 07:50:15;;;;;;;5.60;3.70;;;20.90;57.60;;;;;;5049125;28;20210;-44
2023/05/21 07:52:47;;;;;;;5.27;3.77;;;20.90;57.60;;;;;;5052792;28;20201;-44
2023/05/21 07:55:17;;;;;;;5.20;3.50;;;20.90;57.50;;;;;;5069548;28;20627;-44
2023/05/21 07:57:51;;;;;;;4.63;3.17;;;20.90;57.40;;;;;;5070025;28;20194;-44
2023/05/21 08:00:23;;;;;;;6.10;4.10;;;20.90;57.50;;;;;;5066978;28;20203;-43
2023/05/21 08:02:54;;;;;;;5.03;3.73;;;20.90;57.50;;;;;;5051071;28;20209;-43
2023/05/21 08:05:24;;;;;;;4.97;4.43;;;20.90;57.40;;;;;;5068739;28;20205;-44
2023/05/21 08:07:56;;;;;;;6.90;3.80;;;20.90;57.40;;;;;;5069052;28;20219;-44
2023/05/21 08:10:27;;;;;;;6.07;4.30;;;21.00;57.60;;;;;;5037947;28;20425;-44
2023/05/21 08:12:57;;;;;;;4.20;3.60;;;20.90;57.40;;;;;;5064434;28;20190;-44
2023/05/21 08:15:30;;;;;;;4.57;3.97;;;20.90;57.50;;;;;;5067051;28;20220;-44
2023/05/21 08:17:58;;;;;;;5.53;3.93;;;20.90;57.50;;;;;;5064985;28;20204;-44
2023/05/21 08:20:29;;;;;;;4.33;3.63;;;21.00;57.60;;;;;;5069924;28;20190;-45
2023/05/21 08:23:00;;;;;;;4.53;3.50;;;20.90;57.40;;;;;;5069465;28;20198;-44
2023/05/21 08:25:32;;;;;;;4.10;3.60;;;21.00;57.50;;;;;;5068023;28;20205;-44
2023/05/21 08:28:06;;;;;;;3.47;3.10;;;21.00;57.50;;;;;;5064102;28;20238;-44
2023/05/21 08:30:36;;;;;;;3.80;3.30;;;21.00;57.50;;;;;;5070605;28;20795;-44
2023/05/21 08:33:19;;;;;;;5.03;3.70;;;21.00;57.50;;;;;;5069345;28;20225;-44
2023/05/21 08:35:54;;;;;;;5.23;3.70;;;21.00;57.50;;;;;;5069909;28;20182;-43
2023/05/21 08:38:26;;;;;;;4.13;3.43;;;21.00;57.50;;;;;;5065627;28;20283;-44
2023/05/21 08:40:59;;;;;;;4.20;3.50;;;21.00;57.50;;;;;;5070722;28;20186;-44
2023/05/21 08:43:30;;;;;;;4.00;3.40;;;21.00;57.50;;;;;;5057598;28;20611;-44
2023/05/21 08:46:04;;;;;;;4.17;3.40;;;21.00;57.60;;;;;;5055342;28;20206;-44
2023/05/21 08:48:37;;;;;;;4.63;3.63;;;21.00;57.60;;;;;;5068900;28;20201;-45
2023/05/21 08:51:08;;;;;;;4.20;3.80;;;21.00;57.60;;;;;;5068750;28;20722;-44
2023/05/21 08:53:38;;;;;;;4.17;3.57;;;21.10;58.30;;;;;;5069091;28;20209;-43
2023/05/21 08:56:11;;;;;;;4.23;3.43;;;21.00;57.60;;;;;;5050919;28;20500;-43
2023/05/21 08:58:56;;;;;;;5.67;4.17;;;21.10;57.70;;;;;;5053413;28;20581;-44
2023/05/21 09:01:26;;;;;;;3.70;3.40;;;21.10;57.70;;;;;;5051460;28;20211;-44
2023/05/21 09:04:00;;;;;;;4.47;3.57;;;21.10;57.70;;;;;;5049522;28;20260;-44
2023/05/21 09:06:46;;;;;;;4.00;3.60;;;21.00;57.60;;;;;;5068865;28;20186;-44
2023/05/21 09:09:27;;;;;;;5.23;4.30;;;21.10;57.70;;;;;;5050263;28;20185;-44
2023/05/21 09:11:55;;;;;;;4.30;3.83;;;21.10;57.70;;;;;;5050138;28;20442;-44
2023/05/21 09:14:27;;;;;;;3.73;3.37;;;21.10;57.80;;;;;;5064414;28;20221;-44
2023/05/21 09:16:58;;;;;;;5.50;3.80;;;21.10;57.80;;;;;;5069306;28;20193;-43
2023/05/21 09:19:30;;;;;;;4.47;3.60;;;21.20;57.80;;;;;;5068715;28;20379;-43
2023/05/21 09:22:03;;;;;;;4.47;4.03;;;21.20;57.80;;;;;;5051446;28;20746;-43
2023/05/21 09:24:33;;;;;;;4.50;4.10;;;21.20;57.90;;;;;;5068317;28;20193;-43
2023/05/21 09:27:06;;;;;;;4.00;3.60;;;21.20;57.90;;;;;;5063055;28;20259;-44
2023/05/21 09:29:34;;;;;;;6.27;4.30;;;21.20;58.10;;;;;;5050741;28;20221;-44
2023/05/21 09:32:06;;;;;;;4.27;3.87;;;21.20;58.00;;;;;;5067207;28;20346;-44
2023/05/21 09:34:38;;;;;;;4.40;4.00;;;21.20;58.50;;;;;;5068396;28;20217;-44
2023/05/21 09:37:13;;;;;;;4.50;3.77;;;21.20;58.00;;;;;;5068519;28;20277;-44
2023/05/21 09:39:59;;;;;;;4.60;4.10;;;21.20;58.00;;;;;;5065598;28;20210;-43
2023/05/21 09:42:30;;;;;;;5.53;4.50;;;21.20;57.90;;;;;;5065340;28;20634;-44
2023/05/21 09:45:24;;;;;;;5.07;4.30;;;21.20;58.00;;;;;;5067168;28;20182;-44
2023/05/21 09:47:55;;;;;;;4.60;4.20;;;21.30;58.10;;;;;;5058637;28;20200;-43
2023/05/21 09:50:27;;;;;;;4.57;4.13;;;21.30;58.10;;;;;;5062438;28;20206;-44
2023/05/21 09:52:57;;;;;;;4.97;4.40;;;21.20;58.10;;;;;;5051901;28;20186;-43
2023/05/21 09:55:34;;;;;;;5.70;4.97;;;21.30;58.30;;;;;;5068343;28;20198;-44
2023/05/21 09:58:03;;;;;;;5.43;4.63;;;21.30;58.30;;;;;;5065919;28;20625;-44
2023/05/21 10:00:31;;;;;;;5.13;4.63;;;21.30;58.30;;;;;;5033976;28;20198;-44
2023/05/21 10:03:07;;;;;;;6.00;4.77;;;21.30;58.30;;;;;;5066401;28;20228;-44
2023/05/21 10:05:39;;;;;;;5.73;5.10;;;21.30;58.30;;;;;;5068105;28;20194;-44
2023/05/21 10:08:17;;;;;;;8.43;5.83;;;21.30;58.40;;;;;;5065335;28;20190;-44
2023/05/21 10:10:48;;;;;;;6.00;5.40;;;21.40;58.50;;;;;;5050881;28;20209;-44
2023/05/21 10:13:20;;;;;;;4.80;4.40;;;21.40;58.60;;;;;;5051574;28;20232;-44
2023/05/21 10:16:02;;;;;;;4.93;4.43;;;21.40;58.50;;;;;;5066252;28;20213;-43
2023/05/21 10:18:32;;;;;;;4.83;4.43;;;21.30;58.40;;;;;;5071779;28;20197;-44
2023/05/21 10:21:02;;;;;;;4.90;4.40;;;21.40;58.50;;;;;;5054923;28;20636;-44
2023/05/21 10:23:35;;;;;;;5.33;4.83;;;21.40;58.50;;;;;;5077930;28;20189;-43
2023/05/21 10:26:07;;;;;;;5.10;4.33;;;21.40;58.60;;;;;;5069227;28;20240;-44
2023/05/21 10:28:40;;;;;;;5.90;5.40;;;21.40;58.60;;;;;;5062790;28;20232;-45
2023/05/21 10:31:12;;;;;;;5.60;5.10;;;21.40;58.60;;;;;;5070881;28;20305;-44
2023/05/21 10:33:43;;;;;;;5.60;5.10;;;21.40;58.70;;;;;;5071334;28;20206;-43
2023/05/21 10:36:31;;;;;;;5.20;4.60;;;21.40;58.80;;;;;;5058301;28;20284;-44
2023/05/21 10:39:03;;;;;;;6.73;6.03;;;21.40;58.80;;;;;;5052359;28;20240;-44
2023/05/21 10:41:59;;;;;;;5.30;4.80;;;21.40;58.90;;;;;;5071684;28;20201;-44
2023/05/21 10:44:54;;;;;;;5.90;5.40;;;21.50;58.90;;;;;;5041830;28;20193;-44
2023/05/21 10:48:02;;;;;;;5.63;5.13;;;21.50;58.90;;;;;;5071823;28;20182;-44
2023/05/21 10:51:00;;;;;;;5.93;5.33;;;21.50;59.00;;;;;;5067218;28;20210;-44
2023/05/21 10:54:12;;;;;;;6.00;5.40;;;21.50;59.10;;;;;;5066052;28;20274;-44
2023/05/21 10:57:18;;;;;;;6.63;5.67;;;21.50;59.20;;;;;;5070751;28;20665;-44
2023/05/21 10:59:50;;;;;;;7.17;5.73;;;21.50;59.30;;;;;;5066583;28;20533;-44
2023/05/21 11:02:25;;;;;;;7.17;5.53;;;21.50;59.50;;;;;;5066969;28;20197;-44
2023/05/21 11:05:01;;;;;;;6.93;5.80;;;21.60;59.60;;;;;;5052120;28;20186;-44
2023/05/21 11:07:55;;;;;;;6.37;5.77;;;21.60;59.60;;;;;;5040397;28;20198;-44
2023/05/21 11:10:43;;;;;;;6.80;5.93;;;21.60;59.50;;;;;;5052624;28;20220;-44
2023/05/21 11:13:18;;;;;;;8.67;6.50;;;21.60;59.60;;;;;;5070675;28;20688;-44
2023/05/21 11:16:00;;;;;;;6.77;6.13;;;21.60;59.70;;;;;;5066106;28;20646;-44
2023/05/21 11:18:56;;;;;;;7.00;6.40;;;21.70;59.80;;;;;;5070339;28;20217;-45
2023/05/21 11:21:30;;;;;;;7.27;5.90;;;21.70;59.90;;;;;;5028351;28;20215;-45
2023/05/21 11:24:05;;;;;;;6.27;5.67;;;21.70;59.80;;;;;;5011168;28;20301;-45
2023/05/21 11:27:01;;;;;;;6.27;5.67;;;21.70;59.80;;;;;;5022879;28;20214;-45
2023/05/21 11:29:39;;;;;;;6.70;6.10;;;21.70;59.90;;;;;;5027576;28;20207;-44
2023/05/21 11:32:12;;;;;;;6.43;5.80;;;21.70;60.00;;;;;;5005900;28;20235;-44
2023/05/21 11:34:47;;;;;;;7.10;5.33;;;21.70;59.90;;;;;;4977083;28;20211;-43
2023/05/21 11:37:29;;;;;;;6.77;5.30;;;21.80;59.90;;;;;;5008934;28;20242;-43
2023/05/21 11:40:27;;;;;;;6.87;6.00;;;21.80;59.90;;;;;;5009248;28;20212;-44
2023/05/21 11:42:58;;;;;;;7.27;5.83;;;21.80;60.00;;;;;;4993560;28;20339;-44
2023/05/21 11:45:31;;;;;;;10.03;6.83;;;21.80;60.10;;;;;;4996903;28;20196;-44
2023/05/21 11:48:05;;;;;;;6.90;6.27;;;21.80;60.10;;;;;;5000345;28;20195;-43
2023/05/21 11:50:36;;;;;;;7.43;6.03;;;21.80;60.10;;;;;;5007706;28;20816;-44
2023/05/21 11:53:08;;;;;;;8.13;7.30;;;21.80;59.90;;;;;;5042028;28;20210;-44
2023/05/21 11:55:42;;;;;;;8.97;6.40;;;21.80;60.10;;;;;;5033872;28;20209;-43
2023/05/21 11:58:15;;;;;;;6.87;6.17;;;21.90;60.10;;;;;;5046943;28;20208;-43
2023/05/21 12:00:51;;;;;;;7.03;6.33;;;21.90;60.10;;;;;;5032070;28;20638;-44
2023/05/21 12:03:25;;;;;;;8.13;7.33;;;21.90;60.10;;;;;;5030486;28;20793;-45
2023/05/21 12:06:04;;;;;;;7.93;6.80;;;21.90;60.10;;;;;;5053101;28;20204;-44
2023/05/21 12:08:37;;;;;;;8.50;7.00;;;21.90;60.20;;;;;;5049299;28;20216;-44
2023/05/21 12:11:08;;;;;;;8.50;7.53;;;22.00;60.30;;;;;;5048288;28;20218;-44
2023/05/21 12:13:41;;;;;;;9.13;6.90;;;22.00;60.40;;;;;;5050831;28;20581;-44
2023/05/21 12:16:12;;;;;;;8.97;7.87;;;22.00;60.40;;;;;;5044546;28;20213;-44
2023/05/21 12:18:52;;;;;;;8.67;7.87;;;22.00;60.40;;;;;;5050134;28;20178;-44
2023/05/21 12:21:26;;;;;;;10.13;6.90;;;22.00;60.40;;;;;;5048791;28;20222;-44
2023/05/21 12:23:58;;;;;;;8.13;7.33;;;22.00;60.50;;;;;;5032604;28;20202;-44
2023/05/21 12:26:28;;;;;;;8.03;7.23;;;22.10;60.70;;;;;;5027639;28;20222;-44
2023/05/21 12:28:58;;;;;;;8.67;7.87;;;22.10;60.80;;;;;;5032551;28;20236;-43
2023/05/21 12:31:31;;;;;;;9.50;8.60;;;22.10;60.80;;;;;;5063305;28;20298;-44
2023/05/21 12:34:01;;;;;;;9.83;8.43;;;22.10;60.80;;;;;;5068569;28;20520;-43
2023/05/21 12:36:33;;;;;;;10.70;8.20;;;22.20;60.90;;;;;;5050280;28;20223;-44
2023/05/21 12:39:04;;;;;;;8.50;7.23;;;22.20;61.00;;;;;;5067020;28;20308;-45
2023/05/21 12:41:38;;;;;;;10.87;7.60;;;22.20;61.00;;;;;;5069805;28;20205;-44
2023/05/21 12:44:13;;;;;;;9.60;8.60;;;22.20;61.00;;;;;;5066831;28;20201;-44
2023/05/21 12:46:43;;;;;;;9.23;8.33;;;22.20;61.10;;;;;;5070078;28;20244;-44
2023/05/21 12:49:42;;;;;;;9.83;7.77;;;22.30;61.10;;;;;;5065308;28;20209;-44
2023/05/21 12:52:12;;;;;;;8.27;7.50;;;22.30;61.10;;;;;;5060155;28;20226;-43
2023/05/21 12:54:45;;;;;;;10.63;8.37;;;22.30;61.30;;;;;;5051507;28;20206;-44
2023/05/21 12:57:19;;;;;;;8.30;7.50;;;22.40;62.00;;;;;;5052402;28;20686;-44
2023/05/21 13:00:00;;;;;;;9.10;8.00;;;22.40;61.40;;;;;;5052113;28;20208;-44
2023/05/21 13:02:44;;;;;;;9.43;8.00;;;22.30;61.20;;;;;;5065517;28;20213;-44
2023/05/21 13:05:18;;;;;;;9.70;8.03;;;22.40;61.30;;;;;;5051792;28;20623;-44
2023/05/21 13:07:50;;;;;;;8.93;8.03;;;22.40;61.30;;;;;;5069030;28;20201;-44
2023/05/21 13:10:22;;;;;;;8.03;7.23;;;22.40;61.30;;;;;;5066545;28;20194;-44
2023/05/21 13:12:52;;;;;;;9.03;8.13;;;22.40;61.40;;;;;;5069057;28;20227;-44
2023/05/21 13:15:22;;;;;;;8.77;7.97;;;22.40;61.30;;;;;;5067085;28;20584;-44
2023/05/21 13:17:53;;;;;;;9.43;8.17;;;22.50;61.40;;;;;;5056750;28;20193;-44